createdAt,value
2022-08-30T00:01:42.502Z,93800.47
2022-08-30T00:16:44.351Z,93798.97
2022-08-30T00:31:45.960Z,93808.78
2022-08-30T00:46:47.476Z,93803.50
2022-08-30T01:01:49.122Z,93817.69
2022-08-30T01:16:51.016Z,93794.28
2022-08-30T01:31:52.563Z,93800.00
2022-08-30T01:46:54.730Z,93797.75
2022-08-30T02:01:56.320Z,93788.28
2022-08-30T02:16:58.004Z,93780.53
2022-08-30T02:31:59.773Z,93766.63
2022-08-30T02:47:01.361Z,93764.56
2022-08-30T03:02:02.962Z,93767.13
2022-08-30T03:17:06.869Z,93770.03
2022-08-30T03:32:17.621Z,93770.59
2022-08-30T03:47:19.830Z,93772.72
2022-08-30T04:02:21.754Z,93787.22
2022-08-30T04:17:23.742Z,93790.72
2022-08-30T04:32:25.404Z,93786.38
2022-08-30T04:47:27.123Z,93804.53
2022-08-30T05:02:28.801Z,93823.88
2022-08-30T05:17:30.420Z,93834.16
2022-08-30T05:32:31.965Z,93838.13
2022-08-30T05:47:33.580Z,93832.25
2022-08-30T06:02:35.232Z,93832.63
2022-08-30T06:17:39.705Z,93838.72
2022-08-30T06:32:41.340Z,93864.69
2022-08-30T06:47:44.881Z,93872.44
2022-08-30T07:02:46.614Z,93877.03
2022-08-30T07:18:06.824Z,93873.19
2022-08-30T07:33:08.476Z,93882.47
2022-08-30T07:48:11.689Z,93882.84
2022-08-30T08:03:13.468Z,93892.28
2022-08-30T08:18:15.231Z,93905.63
2022-08-30T08:33:17.714Z,93908.28
2022-08-30T08:48:58.510Z,93896.47
2022-08-30T09:04:01.898Z,93895.63
2022-08-30T09:19:03.519Z,93877.88
2022-08-30T09:34:09.433Z,93894.41
2022-08-30T09:49:26.216Z,93889.59
2022-08-30T10:04:43.077Z,93878.53
2022-08-30T10:19:47.543Z,93849.06
2022-08-30T10:35:01.473Z,93829.72
2022-08-30T10:50:07.319Z,93827.84
2022-08-30T11:05:32.177Z,93820.94
2022-08-30T11:20:42.811Z,93817.91
2022-08-30T11:35:48.330Z,93797.13
2022-08-30T11:50:53.176Z,93806.22
2022-08-30T12:05:59.810Z,93780.63
2022-08-30T12:21:05.250Z,93762.59
2022-08-30T12:36:13.616Z,93735.09
2022-08-30T12:51:36.939Z,93722.28
2022-08-30T13:06:42.583Z,93727.09
2022-08-30T13:21:50.173Z,93732.56
2022-08-30T13:36:54.517Z,93726.38
2022-08-30T13:52:19.315Z,93709.22
2022-08-30T14:07:20.479Z,93692.28
2022-08-30T14:22:22.789Z,93698.25
2022-08-30T14:37:24.411Z,93678.06
2022-08-30T14:52:27.255Z,93663.78
2022-08-30T15:07:29.149Z,93670.63
2022-08-30T15:22:30.724Z,93658.44
2022-08-30T15:37:32.233Z,93665.81
2022-08-30T15:52:34.286Z,93646.56
2022-08-30T16:07:40.407Z,93643.69
2022-08-30T16:22:45.801Z,93641.88
2022-08-30T16:37:48.042Z,93664.84
2022-08-30T16:52:50.458Z,93676.44
2022-08-30T17:07:52.509Z,93683.88
2022-08-30T17:22:54.032Z,93689.31
2022-08-30T17:37:55.958Z,93703.09
2022-08-30T17:52:57.548Z,93718.31
2022-08-30T18:07:59.070Z,93732.78
2022-08-30T18:23:02.259Z,93739.56
2022-08-30T18:38:03.889Z,93742.19
2022-08-30T18:53:06.588Z,93744.56
2022-08-30T19:08:11.122Z,93747.69
2022-08-30T19:23:13.492Z,93735.84
2022-08-30T19:38:15.873Z,93742.50
2022-08-30T19:53:18.042Z,93743.38
2022-08-30T20:08:19.799Z,93728.16
2022-08-30T20:23:24.115Z,93726.38
2022-08-30T20:38:27.361Z,93731.81
2022-08-30T20:53:28.933Z,93728.16
2022-08-30T21:08:30.657Z,93733.88
2022-08-30T21:23:32.587Z,93718.75
2022-08-30T21:38:34.358Z,93714.00
2022-08-30T21:53:36.495Z,93698.00
2022-08-30T22:16:08.746Z,93701.97
2022-08-30T22:31:11.352Z,93728.88
2022-08-30T22:46:12.952Z,93720.41
2022-08-30T23:01:18.541Z,93709.88
2022-08-30T23:16:20.435Z,93700.53
2022-08-30T23:31:40.589Z,93681.75
2022-08-30T23:47:00.801Z,93675.84
